sensor_id;sensor_type;location;lat;lon;timestamp;P1;durP1;ratioP1;P2;durP2;ratioP2
75504;SDS011;64085;54.974;73.410;2024-03-17T00:01:04;6.50;;;4.57;;
75504;SDS011;64085;54.974;73.410;2024-03-17T00:03:30;8.02;;;4.00;;
75504;SDS011;64085;54.974;73.410;2024-03-17T00:05:59;6.97;;;5.20;;
75504;SDS011;64085;54.974;73.410;2024-03-17T00:08:24;6.30;;;4.07;;
75504;SDS011;64085;54.974;73.410;2024-03-17T00:10:53;7.03;;;5.03;;
75504;SDS011;64085;54.974;73.410;2024-03-17T00:13:20;15.80;;;6.95;;
75504;SDS011;64085;54.974;73.410;2024-03-17T00:15:46;12.05;;;5.38;;
75504;SDS011;64085;54.974;73.410;2024-03-17T00:18:12;5.85;;;4.47;;
75504;SDS011;64085;54.974;73.410;2024-03-17T00:20:38;10.80;;;5.55;;
75504;SDS011;64085;54.974;73.410;2024-03-17T00:23:06;19.00;;;8.77;;
75504;SDS011;64085;54.974;73.410;2024-03-17T00:25:33;7.10;;;3.72;;
75504;SDS011;64085;54.974;73.410;2024-03-17T00:28:01;15.00;;;5.70;;
75504;SDS011;64085;54.974;73.410;2024-03-17T00:30:27;3.00;;;1.45;;
75504;SDS011;64085;54.974;73.410;2024-03-17T00:32:53;10.27;;;5.63;;
75504;SDS011;64085;54.974;73.410;2024-03-17T00:35:18;3.78;;;1.75;;
75504;SDS011;64085;54.974;73.410;2024-03-17T00:37:50;6.55;;;2.40;;
75504;SDS011;64085;54.974;73.410;2024-03-17T00:40:16;2.00;;;1.80;;
75504;SDS011;64085;54.974;73.410;2024-03-17T00:42:41;1.50;;;1.40;;
75504;SDS011;64085;54.974;73.410;2024-03-17T00:45:07;0.70;;;0.70;;
75504;SDS011;64085;54.974;73.410;2024-03-17T00:47:33;13.82;;;4.82;;
75504;SDS011;64085;54.974;73.410;2024-03-17T00:49:58;11.80;;;4.80;;
75504;SDS011;64085;54.974;73.410;2024-03-17T00:52:24;12.85;;;7.28;;
75504;SDS011;64085;54.974;73.410;2024-03-17T00:54:49;5.93;;;3.65;;
75504;SDS011;64085;54.974;73.410;2024-03-17T00:57:15;11.60;;;5.63;;
75504;SDS011;64085;54.974;73.410;2024-03-17T00:59:43;7.05;;;3.53;;
75504;SDS011;64085;54.974;73.410;2024-03-17T01:02:12;5.00;;;3.15;;
75504;SDS011;64085;54.974;73.410;2024-03-17T01:04:41;11.93;;;4.88;;
75504;SDS011;64085;54.974;73.410;2024-03-17T01:07:07;7.40;;;4.20;;
75504;SDS011;64085;54.974;73.410;2024-03-17T01:09:32;2.00;;;1.90;;
75504;SDS011;64085;54.974;73.410;2024-03-17T01:11:58;1.85;;;1.75;;
75504;SDS011;64085;54.974;73.410;2024-03-17T01:14:23;4.32;;;2.20;;
75504;SDS011;64085;54.974;73.410;2024-03-17T01:16:50;4.05;;;2.33;;
75504;SDS011;64085;54.974;73.410;2024-03-17T01:19:15;3.05;;;2.42;;
75504;SDS011;64085;54.974;73.410;2024-03-17T01:21:41;13.57;;;5.93;;
75504;SDS011;64085;54.974;73.410;2024-03-17T01:24:06;2.65;;;1.67;;
75504;SDS011;64085;54.974;73.410;2024-03-17T01:26:32;8.77;;;4.38;;
75504;SDS011;64085;54.974;73.410;2024-03-17T01:28:58;2.70;;;1.83;;
75504;SDS011;64085;54.974;73.410;2024-03-17T01:31:23;5.13;;;2.53;;
75504;SDS011;64085;54.974;73.410;2024-03-17T01:33:50;5.13;;;4.57;;
75504;SDS011;64085;54.974;73.410;2024-03-17T01:36:15;2.65;;;2.17;;
75504;SDS011;64085;54.974;73.410;2024-03-17T01:38:41;6.53;;;5.50;;
75504;SDS011;64085;54.974;73.410;2024-03-17T01:41:06;9.52;;;5.93;;
75504;SDS011;64085;54.974;73.410;2024-03-17T01:43:32;6.68;;;3.60;;
75504;SDS011;64085;54.974;73.410;2024-03-17T01:45:58;5.32;;;3.38;;
75504;SDS011;64085;54.974;73.410;2024-03-17T01:48:24;2.35;;;1.48;;
75504;SDS011;64085;54.974;73.410;2024-03-17T01:50:50;6.32;;;3.00;;
75504;SDS011;64085;54.974;73.410;2024-03-17T01:53:17;13.13;;;4.90;;
75504;SDS011;64085;54.974;73.410;2024-03-17T01:55:43;6.93;;;4.88;;
75504;SDS011;64085;54.974;73.410;2024-03-17T01:58:08;10.48;;;5.18;;
75504;SDS011;64085;54.974;73.410;2024-03-17T02:00:38;4.05;;;2.90;;
75504;SDS011;64085;54.974;73.410;2024-03-17T02:03:05;7.75;;;4.50;;
75504;SDS011;64085;54.974;73.410;2024-03-17T02:05:31;16.88;;;5.95;;
75504;SDS011;64085;54.974;73.410;2024-03-17T02:07:56;12.50;;;6.40;;
75504;SDS011;64085;54.974;73.410;2024-03-17T02:10:22;19.30;;;7.38;;
75504;SDS011;64085;54.974;73.410;2024-03-17T02:12:47;25.75;;;10.30;;
75504;SDS011;64085;54.974;73.410;2024-03-17T02:15:13;11.40;;;6.82;;
75504;SDS011;64085;54.974;73.410;2024-03-17T02:17:39;14.43;;;7.15;;
75504;SDS011;64085;54.974;73.410;2024-03-17T02:20:05;9.80;;;5.40;;
75504;SDS011;64085;54.974;73.410;2024-03-17T02:22:34;14.23;;;6.35;;
75504;SDS011;64085;54.974;73.410;2024-03-17T02:25:00;11.65;;;5.95;;
75504;SDS011;64085;54.974;73.410;2024-03-17T02:27:25;13.70;;;7.07;;
75504;SDS011;64085;54.974;73.410;2024-03-17T02:29:50;17.80;;;8.70;;
75504;SDS011;64085;54.974;73.410;2024-03-17T02:32:16;16.02;;;7.28;;
75504;SDS011;64085;54.974;73.410;2024-03-17T02:34:42;19.30;;;9.40;;
75504;SDS011;64085;54.974;73.410;2024-03-17T02:37:09;26.63;;;12.63;;
75504;SDS011;64085;54.974;73.410;2024-03-17T02:39:35;15.43;;;7.22;;
75504;SDS011;64085;54.974;73.410;2024-03-17T02:42:04;11.23;;;4.88;;
75504;SDS011;64085;54.974;73.410;2024-03-17T02:44:30;15.93;;;6.10;;
75504;SDS011;64085;54.974;73.410;2024-03-17T02:46:57;15.20;;;5.97;;
75504;SDS011;64085;54.974;73.410;2024-03-17T02:49:23;20.02;;;8.98;;
75504;SDS011;64085;54.974;73.410;2024-03-17T02:51:48;18.35;;;6.85;;
75504;SDS011;64085;54.974;73.410;2024-03-17T02:54:14;12.27;;;6.00;;
75504;SDS011;64085;54.974;73.410;2024-03-17T02:56:39;13.73;;;5.88;;
75504;SDS011;64085;54.974;73.410;2024-03-17T02:59:05;30.23;;;14.18;;
75504;SDS011;64085;54.974;73.410;2024-03-17T03:01:31;12.40;;;7.25;;
75504;SDS011;64085;54.974;73.410;2024-03-17T03:03:57;20.50;;;9.45;;
75504;SDS011;64085;54.974;73.410;2024-03-17T03:06:22;26.98;;;9.80;;
75504;SDS011;64085;54.974;73.410;2024-03-17T03:08:48;23.67;;;11.90;;
75504;SDS011;64085;54.974;73.410;2024-03-17T03:11:16;29.85;;;14.05;;
75504;SDS011;64085;54.974;73.410;2024-03-17T03:13:42;26.00;;;13.70;;
75504;SDS011;64085;54.974;73.410;2024-03-17T03:16:08;21.73;;;11.32;;
75504;SDS011;64085;54.974;73.410;2024-03-17T03:18:35;26.23;;;12.60;;
75504;SDS011;64085;54.974;73.410;2024-03-17T03:21:00;27.55;;;13.35;;
75504;SDS011;64085;54.974;73.410;2024-03-17T03:23:26;24.40;;;12.75;;
75504;SDS011;64085;54.974;73.410;2024-03-17T03:25:58;25.63;;;13.95;;
75504;SDS011;64085;54.974;73.410;2024-03-17T03:31:11;22.40;;;13.80;;
75504;SDS011;64085;54.974;73.410;2024-03-17T03:33:39;19.83;;;12.43;;
75504;SDS011;64085;54.974;73.410;2024-03-17T03:36:10;21.92;;;13.57;;
75504;SDS011;64085;54.974;73.410;2024-03-17T03:38:36;21.40;;;12.38;;
75504;SDS011;64085;54.974;73.410;2024-03-17T03:41:08;21.33;;;12.98;;
75504;SDS011;64085;54.974;73.410;2024-03-17T03:43:34;25.95;;;14.43;;
75504;SDS011;64085;54.974;73.410;2024-03-17T03:46:00;27.15;;;14.85;;
75504;SDS011;64085;54.974;73.410;2024-03-17T03:48:26;26.63;;;13.60;;
75504;SDS011;64085;54.974;73.410;2024-03-17T03:50:51;25.38;;;15.95;;
75504;SDS011;64085;54.974;73.410;2024-03-17T03:53:17;23.05;;;13.02;;
75504;SDS011;64085;54.974;73.410;2024-03-17T03:55:42;27.25;;;16.80;;
75504;SDS011;64085;54.974;73.410;2024-03-17T03:58:08;26.95;;;14.95;;
75504;SDS011;64085;54.974;73.410;2024-03-17T04:00:33;26.10;;;16.77;;
75504;SDS011;64085;54.974;73.410;2024-03-17T04:02:59;25.92;;;16.58;;
75504;SDS011;64085;54.974;73.410;2024-03-17T04:05:26;26.90;;;17.33;;
75504;SDS011;64085;54.974;73.410;2024-03-17T04:07:52;31.10;;;19.02;;
75504;SDS011;64085;54.974;73.410;2024-03-17T04:10:18;25.67;;;16.92;;
75504;SDS011;64085;54.974;73.410;2024-03-17T04:15:12;19.27;;;11.77;;
75504;SDS011;64085;54.974;73.410;2024-03-17T04:17:39;16.50;;;11.00;;
75504;SDS011;64085;54.974;73.410;2024-03-17T04:20:05;18.95;;;12.25;;
75504;SDS011;64085;54.974;73.410;2024-03-17T04:22:33;20.45;;;13.65;;
75504;SDS011;64085;54.974;73.410;2024-03-17T04:24:58;19.42;;;11.70;;
75504;SDS011;64085;54.974;73.410;2024-03-17T04:27:24;16.10;;;10.13;;
75504;SDS011;64085;54.974;73.410;2024-03-17T04:29:51;16.98;;;10.38;;
75504;SDS011;64085;54.974;73.410;2024-03-17T04:32:17;16.65;;;11.52;;
75504;SDS011;64085;54.974;73.410;2024-03-17T04:34:42;17.83;;;13.10;;
75504;SDS011;64085;54.974;73.410;2024-03-17T04:37:08;16.25;;;11.48;;
75504;SDS011;64085;54.974;73.410;2024-03-17T04:39:36;14.25;;;10.55;;
75504;SDS011;64085;54.974;73.410;2024-03-17T04:42:03;18.45;;;12.32;;
75504;SDS011;64085;54.974;73.410;2024-03-17T04:44:29;21.50;;;14.18;;
75504;SDS011;64085;54.974;73.410;2024-03-17T04:46:54;16.85;;;12.85;;
75504;SDS011;64085;54.974;73.410;2024-03-17T04:49:20;11.85;;;10.23;;
75504;SDS011;64085;54.974;73.410;2024-03-17T04:51:45;17.38;;;11.73;;
75504;SDS011;64085;54.974;73.410;2024-03-17T04:54:11;12.25;;;9.00;;
75504;SDS011;64085;54.974;73.410;2024-03-17T04:56:36;15.88;;;10.70;;
75504;SDS011;64085;54.974;73.410;2024-03-17T04:59:02;16.63;;;10.75;;
75504;SDS011;64085;54.974;73.410;2024-03-17T05:01:27;18.20;;;11.10;;
75504;SDS011;64085;54.974;73.410;2024-03-17T05:03:55;18.98;;;12.07;;
75504;SDS011;64085;54.974;73.410;2024-03-17T05:06:21;18.38;;;13.52;;
75504;SDS011;64085;54.974;73.410;2024-03-17T05:08:46;16.85;;;11.85;;
75504;SDS011;64085;54.974;73.410;2024-03-17T05:11:12;14.27;;;9.77;;
75504;SDS011;64085;54.974;73.410;2024-03-17T05:13:39;18.45;;;10.20;;
75504;SDS011;64085;54.974;73.410;2024-03-17T05:16:04;15.32;;;12.38;;
75504;SDS011;64085;54.974;73.410;2024-03-17T05:18:31;14.70;;;10.02;;
75504;SDS011;64085;54.974;73.410;2024-03-17T05:21:02;17.42;;;11.07;;
75504;SDS011;64085;54.974;73.410;2024-03-17T05:23:29;15.80;;;9.57;;
75504;SDS011;64085;54.974;73.410;2024-03-17T05:25:55;15.68;;;10.02;;
75504;SDS011;64085;54.974;73.410;2024-03-17T05:28:21;14.13;;;10.07;;
75504;SDS011;64085;54.974;73.410;2024-03-17T05:30:47;14.00;;;9.20;;
75504;SDS011;64085;54.974;73.410;2024-03-17T05:33:13;13.65;;;9.38;;
75504;SDS011;64085;54.974;73.410;2024-03-17T05:35:39;13.38;;;8.00;;
75504;SDS011;64085;54.974;73.410;2024-03-17T05:38:04;17.60;;;11.95;;
75504;SDS011;64085;54.974;73.410;2024-03-17T05:40:30;13.57;;;8.48;;
75504;SDS011;64085;54.974;73.410;2024-03-17T05:42:58;12.73;;;8.70;;
75504;SDS011;64085;54.974;73.410;2024-03-17T05:45:25;11.98;;;9.18;;
75504;SDS011;64085;54.974;73.410;2024-03-17T05:47:50;13.15;;;8.35;;
75504;SDS011;64085;54.974;73.410;2024-03-17T05:50:16;12.13;;;9.20;;
75504;SDS011;64085;54.974;73.410;2024-03-17T05:52:41;12.90;;;9.23;;
75504;SDS011;64085;54.974;73.410;2024-03-17T05:55:07;16.08;;;10.70;;
75504;SDS011;64085;54.974;73.410;2024-03-17T05:57:32;12.48;;;8.65;;
75504;SDS011;64085;54.974;73.410;2024-03-17T05:59:58;13.52;;;8.70;;
75504;SDS011;64085;54.974;73.410;2024-03-17T06:02:23;12.85;;;8.20;;
75504;SDS011;64085;54.974;73.410;2024-03-17T06:04:48;14.55;;;10.25;;
75504;SDS011;64085;54.974;73.410;2024-03-17T06:07:14;14.10;;;10.27;;
75504;SDS011;64085;54.974;73.410;2024-03-17T06:09:39;15.43;;;9.52;;
75504;SDS011;64085;54.974;73.410;2024-03-17T06:14:49;18.33;;;11.63;;
75504;SDS011;64085;54.974;73.410;2024-03-17T06:17:14;15.73;;;8.75;;
75504;SDS011;64085;54.974;73.410;2024-03-17T06:19:40;12.52;;;8.55;;
75504;SDS011;64085;54.974;73.410;2024-03-17T06:22:05;12.18;;;9.23;;
75504;SDS011;64085;54.974;73.410;2024-03-17T06:24:31;13.07;;;9.10;;
75504;SDS011;64085;54.974;73.410;2024-03-17T06:26:56;16.35;;;10.18;;
75504;SDS011;64085;54.974;73.410;2024-03-17T06:29:21;16.60;;;9.38;;
75504;SDS011;64085;54.974;73.410;2024-03-17T06:31:47;17.67;;;9.43;;
75504;SDS011;64085;54.974;73.410;2024-03-17T06:34:12;14.60;;;8.68;;
75504;SDS011;64085;54.974;73.410;2024-03-17T06:36:41;14.10;;;8.10;;
75504;SDS011;64085;54.974;73.410;2024-03-17T06:39:07;11.50;;;6.68;;
75504;SDS011;64085;54.974;73.410;2024-03-17T06:41:32;14.13;;;7.88;;
75504;SDS011;64085;54.974;73.410;2024-03-17T06:43:58;10.63;;;6.57;;
75504;SDS011;64085;54.974;73.410;2024-03-17T06:46:24;10.15;;;6.57;;
75504;SDS011;64085;54.974;73.410;2024-03-17T06:48:49;7.72;;;4.82;;
75504;SDS011;64085;54.974;73.410;2024-03-17T06:51:16;10.50;;;7.57;;
75504;SDS011;64085;54.974;73.410;2024-03-17T06:53:42;12.30;;;6.80;;
75504;SDS011;64085;54.974;73.410;2024-03-17T06:56:07;15.50;;;6.13;;
75504;SDS011;64085;54.974;73.410;2024-03-17T06:58:33;13.23;;;8.48;;
75504;SDS011;64085;54.974;73.410;2024-03-17T07:00:59;11.13;;;7.28;;
75504;SDS011;64085;54.974;73.410;2024-03-17T07:03:26;8.98;;;5.03;;
75504;SDS011;64085;54.974;73.410;2024-03-17T07:05:53;11.25;;;6.55;;
75504;SDS011;64085;54.974;73.410;2024-03-17T07:08:19;12.07;;;6.72;;
75504;SDS011;64085;54.974;73.410;2024-03-17T07:10:58;8.77;;;3.65;;
75504;SDS011;64085;54.974;73.410;2024-03-17T07:13:24;13.48;;;7.13;;
75504;SDS011;64085;54.974;73.410;2024-03-17T07:15:50;15.35;;;8.52;;
75504;SDS011;64085;54.974;73.410;2024-03-17T07:18:15;12.15;;;6.38;;
75504;SDS011;64085;54.974;73.410;2024-03-17T07:20:41;11.23;;;6.47;;
75504;SDS011;64085;54.974;73.410;2024-03-17T07:23:07;13.13;;;7.53;;
75504;SDS011;64085;54.974;73.410;2024-03-17T07:25:32;13.85;;;6.35;;
75504;SDS011;64085;54.974;73.410;2024-03-17T07:27:57;13.82;;;7.13;;
75504;SDS011;64085;54.974;73.410;2024-03-17T07:30:46;9.15;;;5.55;;
75504;SDS011;64085;54.974;73.410;2024-03-17T07:33:11;15.48;;;7.72;;
75504;SDS011;64085;54.974;73.410;2024-03-17T07:35:55;9.93;;;5.75;;
75504;SDS011;64085;54.974;73.410;2024-03-17T07:38:28;11.13;;;6.90;;
75504;SDS011;64085;54.974;73.410;2024-03-17T07:41:04;16.27;;;7.53;;
75504;SDS011;64085;54.974;73.410;2024-03-17T07:43:36;16.77;;;6.55;;
75504;SDS011;64085;54.974;73.410;2024-03-17T07:46:05;15.27;;;5.88;;
75504;SDS011;64085;54.974;73.410;2024-03-17T07:48:31;8.60;;;5.05;;
75504;SDS011;64085;54.974;73.410;2024-03-17T07:50:57;10.38;;;5.82;;
75504;SDS011;64085;54.974;73.410;2024-03-17T07:53:23;15.88;;;8.05;;
75504;SDS011;64085;54.974;73.410;2024-03-17T07:56:22;7.20;;;5.30;;
75504;SDS011;64085;54.974;73.410;2024-03-17T07:58:41;12.38;;;5.10;;
75504;SDS011;64085;54.974;73.410;2024-03-17T08:01:16;8.77;;;5.63;;
75504;SDS011;64085;54.974;73.410;2024-03-17T08:03:45;13.65;;;7.18;;
75504;SDS011;64085;54.974;73.410;2024-03-17T08:06:10;9.18;;;4.32;;
75504;SDS011;64085;54.974;73.410;2024-03-17T08:08:36;13.73;;;6.25;;
75504;SDS011;64085;54.974;73.410;2024-03-17T08:11:02;8.73;;;4.22;;
75504;SDS011;64085;54.974;73.410;2024-03-17T08:13:28;13.90;;;5.95;;
75504;SDS011;64085;54.974;73.410;2024-03-17T08:15:59;11.38;;;6.75;;
75504;SDS011;64085;54.974;73.410;2024-03-17T08:18:25;10.60;;;6.38;;
75504;SDS011;64085;54.974;73.410;2024-03-17T08:20:52;13.85;;;6.20;;
75504;SDS011;64085;54.974;73.410;2024-03-17T08:23:18;15.07;;;8.00;;
75504;SDS011;64085;54.974;73.410;2024-03-17T08:25:51;11.40;;;5.47;;
75504;SDS011;64085;54.974;73.410;2024-03-17T08:28:16;6.05;;;3.75;;
75504;SDS011;64085;54.974;73.410;2024-03-17T08:30:42;14.38;;;6.35;;
75504;SDS011;64085;54.974;73.410;2024-03-17T08:33:07;14.50;;;7.13;;
75504;SDS011;64085;54.974;73.410;2024-03-17T08:35:34;6.05;;;3.88;;
75504;SDS011;64085;54.974;73.410;2024-03-17T08:38:02;9.10;;;4.75;;
75504;SDS011;64085;54.974;73.410;2024-03-17T08:40:27;11.02;;;5.28;;
75504;SDS011;64085;54.974;73.410;2024-03-17T08:42:53;7.63;;;4.25;;
75504;SDS011;64085;54.974;73.410;2024-03-17T08:45:18;8.35;;;3.63;;
75504;SDS011;64085;54.974;73.410;2024-03-17T08:47:44;7.18;;;4.47;;
75504;SDS011;64085;54.974;73.410;2024-03-17T08:50:09;8.30;;;5.05;;
75504;SDS011;64085;54.974;73.410;2024-03-17T08:52:37;5.10;;;2.63;;
75504;SDS011;64085;54.974;73.410;2024-03-17T08:55:03;11.10;;;5.57;;
75504;SDS011;64085;54.974;73.410;2024-03-17T08:57:31;10.82;;;5.70;;
75504;SDS011;64085;54.974;73.410;2024-03-17T08:59:56;9.15;;;4.25;;
75504;SDS011;64085;54.974;73.410;2024-03-17T09:02:21;5.78;;;2.38;;
75504;SDS011;64085;54.974;73.410;2024-03-17T09:04:47;5.93;;;3.85;;
75504;SDS011;64085;54.974;73.410;2024-03-17T09:07:13;7.63;;;4.70;;
75504;SDS011;64085;54.974;73.410;2024-03-17T09:09:43;9.20;;;5.10;;
75504;SDS011;64085;54.974;73.410;2024-03-17T09:12:09;9.55;;;4.90;;
75504;SDS011;64085;54.974;73.410;2024-03-17T09:14:34;8.68;;;4.82;;
75504;SDS011;64085;54.974;73.410;2024-03-17T09:17:00;7.50;;;3.90;;
75504;SDS011;64085;54.974;73.410;2024-03-17T09:19:25;5.53;;;3.08;;
75504;SDS011;64085;54.974;73.410;2024-03-17T09:21:50;4.30;;;2.58;;
75504;SDS011;64085;54.974;73.410;2024-03-17T09:24:16;8.23;;;4.93;;
75504;SDS011;64085;54.974;73.410;2024-03-17T09:26:41;6.13;;;4.13;;
75504;SDS011;64085;54.974;73.410;2024-03-17T09:29:07;5.90;;;3.53;;
75504;SDS011;64085;54.974;73.410;2024-03-17T09:31:32;6.93;;;2.67;;
75504;SDS011;64085;54.974;73.410;2024-03-17T09:34:00;3.47;;;1.90;;
75504;SDS011;64085;54.974;73.410;2024-03-17T09:36:26;5.88;;;2.88;;
75504;SDS011;64085;54.974;73.410;2024-03-17T09:38:52;7.03;;;2.88;;
75504;SDS011;64085;54.974;73.410;2024-03-17T09:41:21;4.60;;;2.90;;
75504;SDS011;64085;54.974;73.410;2024-03-17T09:43:47;5.93;;;2.97;;
75504;SDS011;64085;54.974;73.410;2024-03-17T09:46:13;6.78;;;3.13;;
75504;SDS011;64085;54.974;73.410;2024-03-17T09:48:39;7.10;;;4.07;;
75504;SDS011;64085;54.974;73.410;2024-03-17T09:51:05;4.20;;;2.63;;
75504;SDS011;64085;54.974;73.410;2024-03-17T09:53:33;8.25;;;4.47;;
75504;SDS011;64085;54.974;73.410;2024-03-17T09:56:09;4.20;;;2.67;;
75504;SDS011;64085;54.974;73.410;2024-03-17T10:01:20;3.15;;;2.10;;
75504;SDS011;64085;54.974;73.410;2024-03-17T10:06:19;4.85;;;3.47;;
75504;SDS011;64085;54.974;73.410;2024-03-17T10:11:35;3.47;;;2.20;;
75504;SDS011;64085;54.974;73.410;2024-03-17T10:14:04;3.17;;;2.97;;
75504;SDS011;64085;54.974;73.410;2024-03-17T10:16:31;5.72;;;3.80;;
75504;SDS011;64085;54.974;73.410;2024-03-17T10:21:44;6.32;;;3.60;;
75504;SDS011;64085;54.974;73.410;2024-03-17T10:24:20;8.13;;;3.90;;
75504;SDS011;64085;54.974;73.410;2024-03-17T10:26:53;12.32;;;5.60;;
75504;SDS011;64085;54.974;73.410;2024-03-17T10:29:23;10.98;;;5.47;;
75504;SDS011;64085;54.974;73.410;2024-03-17T10:32:35;8.40;;;3.65;;
75504;SDS011;64085;54.974;73.410;2024-03-17T10:34:44;5.93;;;4.07;;
75504;SDS011;64085;54.974;73.410;2024-03-17T10:37:10;6.18;;;3.50;;
75504;SDS011;64085;54.974;73.410;2024-03-17T10:39:36;5.40;;;2.60;;
75504;SDS011;64085;54.974;73.410;2024-03-17T10:42:03;4.40;;;2.33;;
75504;SDS011;64085;54.974;73.410;2024-03-17T10:44:32;5.95;;;3.08;;
75504;SDS011;64085;54.974;73.410;2024-03-17T10:46:59;8.23;;;3.70;;
75504;SDS011;64085;54.974;73.410;2024-03-17T10:49:29;7.70;;;4.00;;
75504;SDS011;64085;54.974;73.410;2024-03-17T10:52:02;6.00;;;3.85;;
75504;SDS011;64085;54.974;73.410;2024-03-17T10:54:29;6.93;;;4.03;;
75504;SDS011;64085;54.974;73.410;2024-03-17T10:56:55;5.43;;;3.83;;
75504;SDS011;64085;54.974;73.410;2024-03-17T10:59:25;8.23;;;3.92;;
75504;SDS011;64085;54.974;73.410;2024-03-17T11:01:53;7.43;;;3.35;;
75504;SDS011;64085;54.974;73.410;2024-03-17T11:04:19;5.28;;;2.72;;
75504;SDS011;64085;54.974;73.410;2024-03-17T11:06:46;6.13;;;2.90;;
75504;SDS011;64085;54.974;73.410;2024-03-17T11:09:14;6.95;;;4.13;;
75504;SDS011;64085;54.974;73.410;2024-03-17T11:11:41;9.13;;;3.75;;
75504;SDS011;64085;54.974;73.410;2024-03-17T11:14:18;4.72;;;3.03;;
75504;SDS011;64085;54.974;73.410;2024-03-17T11:16:47;7.60;;;3.53;;
75504;SDS011;64085;54.974;73.410;2024-03-17T11:19:16;6.63;;;3.42;;
75504;SDS011;64085;54.974;73.410;2024-03-17T11:21:42;2.67;;;1.33;;
75504;SDS011;64085;54.974;73.410;2024-03-17T11:24:18;6.63;;;3.22;;
75504;SDS011;64085;54.974;73.410;2024-03-17T11:26:43;4.13;;;2.63;;
75504;SDS011;64085;54.974;73.410;2024-03-17T11:29:23;7.35;;;2.90;;
75504;SDS011;64085;54.974;73.410;2024-03-17T11:31:51;7.55;;;4.03;;
75504;SDS011;64085;54.974;73.410;2024-03-17T11:34:33;8.95;;;4.05;;
75504;SDS011;64085;54.974;73.410;2024-03-17T11:37:00;7.75;;;4.18;;
75504;SDS011;64085;54.974;73.410;2024-03-17T11:42:10;6.70;;;3.05;;
75504;SDS011;64085;54.974;73.410;2024-03-17T11:44:39;10.77;;;5.18;;
75504;SDS011;64085;54.974;73.410;2024-03-17T11:47:07;9.75;;;4.47;;
75504;SDS011;64085;54.974;73.410;2024-03-17T11:49:36;9.93;;;4.30;;
75504;SDS011;64085;54.974;73.410;2024-03-17T11:52:03;10.90;;;3.60;;
75504;SDS011;64085;54.974;73.410;2024-03-17T11:54:29;6.57;;;3.35;;
75504;SDS011;64085;54.974;73.410;2024-03-17T11:57:20;7.30;;;4.00;;
75504;SDS011;64085;54.974;73.410;2024-03-17T11:59:44;5.70;;;3.35;;
75504;SDS011;64085;54.974;73.410;2024-03-17T12:02:19;3.03;;;2.58;;
75504;SDS011;64085;54.974;73.410;2024-03-17T12:04:45;9.23;;;4.32;;
75504;SDS011;64085;54.974;73.410;2024-03-17T12:07:15;7.95;;;3.50;;
75504;SDS011;64085;54.974;73.410;2024-03-17T12:09:41;6.30;;;3.72;;
75504;SDS011;64085;54.974;73.410;2024-03-17T12:12:12;12.75;;;7.80;;
75504;SDS011;64085;54.974;73.410;2024-03-17T12:14:39;9.93;;;5.07;;
75504;SDS011;64085;54.974;73.410;2024-03-17T12:17:06;7.65;;;4.50;;
75504;SDS011;64085;54.974;73.410;2024-03-17T12:19:32;11.90;;;4.93;;
75504;SDS011;64085;54.974;73.410;2024-03-17T12:21:58;6.50;;;4.05;;
75504;SDS011;64085;54.974;73.410;2024-03-17T12:24:25;7.70;;;4.63;;
75504;SDS011;64085;54.974;73.410;2024-03-17T12:26:54;11.38;;;4.07;;
75504;SDS011;64085;54.974;73.410;2024-03-17T12:29:28;8.25;;;4.03;;
75504;SDS011;64085;54.974;73.410;2024-03-17T12:34:52;10.05;;;4.78;;
75504;SDS011;64085;54.974;73.410;2024-03-17T12:37:21;10.30;;;5.30;;
75504;SDS011;64085;54.974;73.410;2024-03-17T12:39:47;10.30;;;5.78;;
75504;SDS011;64085;54.974;73.410;2024-03-17T12:42:13;11.68;;;5.00;;
75504;SDS011;64085;54.974;73.410;2024-03-17T12:47:23;11.63;;;6.32;;
75504;SDS011;64085;54.974;73.410;2024-03-17T12:49:52;10.32;;;5.53;;
75504;SDS011;64085;54.974;73.410;2024-03-17T12:52:19;16.15;;;7.75;;
75504;SDS011;64085;54.974;73.410;2024-03-17T12:54:45;11.60;;;6.30;;
75504;SDS011;64085;54.974;73.410;2024-03-17T13:00:22;10.82;;;6.20;;
75504;SDS011;64085;54.974;73.410;2024-03-17T13:02:57;19.98;;;8.98;;
75504;SDS011;64085;54.974;73.410;2024-03-17T13:05:22;30.77;;;10.43;;
75504;SDS011;64085;54.974;73.410;2024-03-17T13:07:48;13.57;;;7.40;;
75504;SDS011;64085;54.974;73.410;2024-03-17T13:10:14;15.57;;;6.47;;
75504;SDS011;64085;54.974;73.410;2024-03-17T13:12:41;12.95;;;5.75;;
75504;SDS011;64085;54.974;73.410;2024-03-17T13:15:08;11.93;;;5.82;;
75504;SDS011;64085;54.974;73.410;2024-03-17T13:17:34;14.88;;;7.07;;
75504;SDS011;64085;54.974;73.410;2024-03-17T13:20:00;10.82;;;6.43;;
75504;SDS011;64085;54.974;73.410;2024-03-17T13:22:26;13.13;;;8.23;;
75504;SDS011;64085;54.974;73.410;2024-03-17T13:24:51;17.05;;;7.53;;
75504;SDS011;64085;54.974;73.410;2024-03-17T13:27:17;15.93;;;7.40;;
75504;SDS011;64085;54.974;73.410;2024-03-17T13:29:46;15.57;;;7.95;;
75504;SDS011;64085;54.974;73.410;2024-03-17T13:32:12;17.50;;;8.90;;
75504;SDS011;64085;54.974;73.410;2024-03-17T13:34:38;20.80;;;9.45;;
75504;SDS011;64085;54.974;73.410;2024-03-17T13:37:03;16.13;;;8.32;;
75504;SDS011;64085;54.974;73.410;2024-03-17T13:39:32;20.55;;;10.93;;
75504;SDS011;64085;54.974;73.410;2024-03-17T13:41:59;19.10;;;8.05;;
75504;SDS011;64085;54.974;73.410;2024-03-17T13:44:31;20.48;;;10.57;;
75504;SDS011;64085;54.974;73.410;2024-03-17T13:46:57;12.82;;;6.82;;
75504;SDS011;64085;54.974;73.410;2024-03-17T13:49:23;19.90;;;9.43;;
75504;SDS011;64085;54.974;73.410;2024-03-17T13:51:48;17.02;;;7.30;;
75504;SDS011;64085;54.974;73.410;2024-03-17T13:54:14;18.00;;;8.85;;
75504;SDS011;64085;54.974;73.410;2024-03-17T13:56:40;16.50;;;8.05;;
75504;SDS011;64085;54.974;73.410;2024-03-17T13:59:05;17.05;;;8.68;;
75504;SDS011;64085;54.974;73.410;2024-03-17T14:01:31;15.85;;;4.25;;
75504;SDS011;64085;54.974;73.410;2024-03-17T14:03:56;22.83;;;10.27;;
75504;SDS011;64085;54.974;73.410;2024-03-17T14:06:22;20.15;;;9.68;;
75504;SDS011;64085;54.974;73.410;2024-03-17T14:08:47;26.02;;;11.77;;
75504;SDS011;64085;54.974;73.410;2024-03-17T14:11:12;23.30;;;10.75;;
75504;SDS011;64085;54.974;73.410;2024-03-17T14:13:38;25.08;;;10.32;;
75504;SDS011;64085;54.974;73.410;2024-03-17T14:16:04;23.08;;;10.88;;
75504;SDS011;64085;54.974;73.410;2024-03-17T14:18:33;25.55;;;12.85;;
75504;SDS011;64085;54.974;73.410;2024-03-17T14:20:58;20.25;;;10.75;;
75504;SDS011;64085;54.974;73.410;2024-03-17T14:23:24;23.45;;;12.05;;
75504;SDS011;64085;54.974;73.410;2024-03-17T14:25:52;23.10;;;9.38;;
75504;SDS011;64085;54.974;73.410;2024-03-17T14:28:17;17.23;;;8.23;;
75504;SDS011;64085;54.974;73.410;2024-03-17T14:30:44;21.60;;;9.98;;
75504;SDS011;64085;54.974;73.410;2024-03-17T14:33:09;20.30;;;7.85;;
75504;SDS011;64085;54.974;73.410;2024-03-17T14:35:36;23.38;;;10.88;;
75504;SDS011;64085;54.974;73.410;2024-03-17T14:38:03;19.50;;;7.75;;
75504;SDS011;64085;54.974;73.410;2024-03-17T14:40:29;7.38;;;4.40;;
75504;SDS011;64085;54.974;73.410;2024-03-17T14:42:55;19.65;;;8.32;;
75504;SDS011;64085;54.974;73.410;2024-03-17T14:45:21;10.68;;;6.03;;
75504;SDS011;64085;54.974;73.410;2024-03-17T14:47:49;23.55;;;11.95;;
75504;SDS011;64085;54.974;73.410;2024-03-17T14:50:14;27.85;;;10.32;;
75504;SDS011;64085;54.974;73.410;2024-03-17T14:52:41;15.10;;;8.23;;